sensor_id;sensor_type;location;lat;lon;timestamp;temperature;humidity
68990;DHT22;56046;47.270;11.368;2022-10-31T00:00:25;11.78;76.64
68990;DHT22;56046;47.270;11.368;2022-10-31T00:02:50;11.70;76.89
68990;DHT22;56046;47.270;11.368;2022-10-31T00:05:15;11.64;77.10
68990;DHT22;56046;47.270;11.368;2022-10-31T00:07:41;11.58;77.53
68990;DHT22;56046;47.270;11.368;2022-10-31T00:10:07;11.51;77.98
68990;DHT22;56046;47.270;11.368;2022-10-31T00:12:33;11.51;78.23
68990;DHT22;56046;47.270;11.368;2022-10-31T00:14:58;11.58;77.80
68990;DHT22;56046;47.270;11.368;2022-10-31T00:17:23;11.54;77.29
68990;DHT22;56046;47.270;11.368;2022-10-31T00:19:49;11.53;77.28
68990;DHT22;56046;47.270;11.368;2022-10-31T00:22:14;11.50;77.43
68990;DHT22;56046;47.270;11.368;2022-10-31T00:24:40;11.37;78.05
68990;DHT22;56046;47.270;11.368;2022-10-31T00:27:05;11.27;78.70
68990;DHT22;56046;47.270;11.368;2022-10-31T00:29:31;11.27;78.87
68990;DHT22;56046;47.270;11.368;2022-10-31T00:31:56;11.20;78.85
68990;DHT22;56046;47.270;11.368;2022-10-31T00:34:22;11.15;79.28
68990;DHT22;56046;47.270;11.368;2022-10-31T00:36:47;11.05;79.66
68990;DHT22;56046;47.270;11.368;2022-10-31T00:39:12;10.95;80.32
68990;DHT22;56046;47.270;11.368;2022-10-31T00:41:38;10.88;80.03
68990;DHT22;56046;47.270;11.368;2022-10-31T00:44:03;10.76;80.65
68990;DHT22;56046;47.270;11.368;2022-10-31T00:46:29;10.75;80.57
68990;DHT22;56046;47.270;11.368;2022-10-31T00:48:54;10.64;80.78
68990;DHT22;56046;47.270;11.368;2022-10-31T00:51:19;10.51;81.53
68990;DHT22;56046;47.270;11.368;2022-10-31T00:53:45;10.45;81.82
68990;DHT22;56046;47.270;11.368;2022-10-31T00:56:10;10.43;81.89
68990;DHT22;56046;47.270;11.368;2022-10-31T00:58:36;10.37;82.33
68990;DHT22;56046;47.270;11.368;2022-10-31T01:01:02;10.32;82.09
68990;DHT22;56046;47.270;11.368;2022-10-31T01:03:30;10.34;82.14
68990;DHT22;56046;47.270;11.368;2022-10-31T01:08:30;10.29;82.34
68990;DHT22;56046;47.270;11.368;2022-10-31T01:13:41;10.23;82.05
68990;DHT22;56046;47.270;11.368;2022-10-31T01:16:09;10.23;82.43
68990;DHT22;56046;47.270;11.368;2022-10-31T01:18:36;10.18;82.65
68990;DHT22;56046;47.270;11.368;2022-10-31T01:23:29;10.36;81.71
68990;DHT22;56046;47.270;11.368;2022-10-31T01:28:30;10.20;81.99
68990;DHT22;56046;47.270;11.368;2022-10-31T01:31:00;10.13;82.50
68990;DHT22;56046;47.270;11.368;2022-10-31T01:33:25;10.07;82.86
68990;DHT22;56046;47.270;11.368;2022-10-31T01:35:51;10.09;82.94
68990;DHT22;56046;47.270;11.368;2022-10-31T01:38:16;10.17;82.34
68990;DHT22;56046;47.270;11.368;2022-10-31T01:40:42;10.13;82.36
68990;DHT22;56046;47.270;11.368;2022-10-31T01:43:12;10.10;82.49
68990;DHT22;56046;47.270;11.368;2022-10-31T01:45:38;10.24;82.03
68990;DHT22;56046;47.270;11.368;2022-10-31T01:48:04;10.26;81.53
68990;DHT22;56046;47.270;11.368;2022-10-31T01:50:33;10.23;81.28
68990;DHT22;56046;47.270;11.368;2022-10-31T01:53:01;10.27;81.03
68990;DHT22;56046;47.270;11.368;2022-10-31T01:55:30;10.21;81.27
68990;DHT22;56046;47.270;11.368;2022-10-31T01:57:59;10.20;81.51
68990;DHT22;56046;47.270;11.368;2022-10-31T02:00:27;10.26;81.39
68990;DHT22;56046;47.270;11.368;2022-10-31T02:02:53;10.24;81.28
68990;DHT22;56046;47.270;11.368;2022-10-31T02:05:24;10.23;81.37
68990;DHT22;56046;47.270;11.368;2022-10-31T02:07:58;10.24;80.88
68990;DHT22;56046;47.270;11.368;2022-10-31T02:10:24;10.23;81.23
68990;DHT22;56046;47.270;11.368;2022-10-31T02:12:51;10.18;81.44
68990;DHT22;56046;47.270;11.368;2022-10-31T02:15:18;10.12;81.77
68990;DHT22;56046;47.270;11.368;2022-10-31T02:17:44;10.05;81.66
68990;DHT22;56046;47.270;11.368;2022-10-31T02:20:25;9.95;82.36
68990;DHT22;56046;47.270;11.368;2022-10-31T02:28:45;9.96;82.50
68990;DHT22;56046;47.270;11.368;2022-10-31T02:33:53;9.78;83.04
68990;DHT22;56046;47.270;11.368;2022-10-31T02:39:11;9.65;83.35
68990;DHT22;56046;47.270;11.368;2022-10-31T02:47:01;9.55;84.24
68990;DHT22;56046;47.270;11.368;2022-10-31T02:49:55;9.59;83.39
68990;DHT22;56046;47.270;11.368;2022-10-31T02:52:27;9.58;83.86
68990;DHT22;56046;47.270;11.368;2022-10-31T02:54:53;9.54;83.57
68990;DHT22;56046;47.270;11.368;2022-10-31T02:57:31;9.71;82.56
68990;DHT22;56046;47.270;11.368;2022-10-31T03:00:04;9.82;82.24
68990;DHT22;56046;47.270;11.368;2022-10-31T03:02:52;9.86;81.82
68990;DHT22;56046;47.270;11.368;2022-10-31T03:05:45;9.88;82.16
68990;DHT22;56046;47.270;11.368;2022-10-31T03:13:21;9.81;81.59
68990;DHT22;56046;47.270;11.368;2022-10-31T03:15:53;9.77;81.84
68990;DHT22;56046;47.270;11.368;2022-10-31T03:18:32;9.77;81.93
68990;DHT22;56046;47.270;11.368;2022-10-31T03:21:15;9.74;82.07
68990;DHT22;56046;47.270;11.368;2022-10-31T03:23:46;9.67;82.40
68990;DHT22;56046;47.270;11.368;2022-10-31T03:26:14;9.68;82.55
68990;DHT22;56046;47.270;11.368;2022-10-31T03:28:52;9.68;82.09
68990;DHT22;56046;47.270;11.368;2022-10-31T03:31:23;9.77;82.35
68990;DHT22;56046;47.270;11.368;2022-10-31T03:33:51;9.75;82.19
68990;DHT22;56046;47.270;11.368;2022-10-31T03:36:17;9.71;81.93
68990;DHT22;56046;47.270;11.368;2022-10-31T03:38:45;9.74;81.75
68990;DHT22;56046;47.270;11.368;2022-10-31T03:41:16;9.72;81.76
68990;DHT22;56046;47.270;11.368;2022-10-31T03:44:10;9.68;81.77
68990;DHT22;56046;47.270;11.368;2022-10-31T03:46:33;9.65;82.15
68990;DHT22;56046;47.270;11.368;2022-10-31T03:48:59;9.55;82.71
68990;DHT22;56046;47.270;11.368;2022-10-31T03:56:44;9.41;83.23
68990;DHT22;56046;47.270;11.368;2022-10-31T03:59:24;9.31;83.58
68990;DHT22;56046;47.270;11.368;2022-10-31T04:01:52;9.32;83.56
68990;DHT22;56046;47.270;11.368;2022-10-31T04:04:19;9.21;83.88
68990;DHT22;56046;47.270;11.368;2022-10-31T04:06:45;9.20;83.81
68990;DHT22;56046;47.270;11.368;2022-10-31T04:09:12;9.16;83.83
68990;DHT22;56046;47.270;11.368;2022-10-31T04:11:44;9.24;83.83
68990;DHT22;56046;47.270;11.368;2022-10-31T04:14:11;9.26;83.40
68990;DHT22;56046;47.270;11.368;2022-10-31T04:16:39;9.28;82.94
68990;DHT22;56046;47.270;11.368;2022-10-31T04:19:05;9.34;82.55
68990;DHT22;56046;47.270;11.368;2022-10-31T04:21:30;9.47;82.17
68990;DHT22;56046;47.270;11.368;2022-10-31T04:23:56;9.47;82.05
68990;DHT22;56046;47.270;11.368;2022-10-31T04:26:22;9.42;82.10
68990;DHT22;56046;47.270;11.368;2022-10-31T04:28:48;9.47;82.21
68990;DHT22;56046;47.270;11.368;2022-10-31T04:31:14;9.47;82.33
68990;DHT22;56046;47.270;11.368;2022-10-31T04:33:40;9.45;82.33
68990;DHT22;56046;47.270;11.368;2022-10-31T04:36:05;9.41;81.99
68990;DHT22;56046;47.270;11.368;2022-10-31T04:38:31;9.41;81.64
68990;DHT22;56046;47.270;11.368;2022-10-31T04:40:56;9.27;82.10
68990;DHT22;56046;47.270;11.368;2022-10-31T04:43:22;9.23;82.83
68990;DHT22;56046;47.270;11.368;2022-10-31T04:45:47;9.26;82.44
68990;DHT22;56046;47.270;11.368;2022-10-31T04:48:13;9.35;82.33
68990;DHT22;56046;47.270;11.368;2022-10-31T04:50:38;9.37;82.54
68990;DHT22;56046;47.270;11.368;2022-10-31T04:53:04;9.28;82.80
68990;DHT22;56046;47.270;11.368;2022-10-31T04:55:29;9.13;83.25
68990;DHT22;56046;47.270;11.368;2022-10-31T04:57:54;9.12;83.38
68990;DHT22;56046;47.270;11.368;2022-10-31T05:00:21;9.03;83.34
68990;DHT22;56046;47.270;11.368;2022-10-31T05:05:14;9.03;83.14
68990;DHT22;56046;47.270;11.368;2022-10-31T05:07:45;9.02;82.97
68990;DHT22;56046;47.270;11.368;2022-10-31T05:10:13;8.94;83.38
68990;DHT22;56046;47.270;11.368;2022-10-31T05:12:48;8.93;83.50
68990;DHT22;56046;47.270;11.368;2022-10-31T05:15:15;8.94;83.70
68990;DHT22;56046;47.270;11.368;2022-10-31T05:17:40;8.96;83.55
68990;DHT22;56046;47.270;11.368;2022-10-31T05:20:06;9.00;83.25
68990;DHT22;56046;47.270;11.368;2022-10-31T05:22:32;8.92;83.72
68990;DHT22;56046;47.270;11.368;2022-10-31T05:24:57;8.87;84.26
68990;DHT22;56046;47.270;11.368;2022-10-31T05:27:22;8.83;83.97
68990;DHT22;56046;47.270;11.368;2022-10-31T05:29:48;8.80;84.23
68990;DHT22;56046;47.270;11.368;2022-10-31T05:32:13;8.77;84.35
68990;DHT22;56046;47.270;11.368;2022-10-31T05:34:39;8.71;84.60
68990;DHT22;56046;47.270;11.368;2022-10-31T05:37:04;8.75;84.34
68990;DHT22;56046;47.270;11.368;2022-10-31T05:39:30;8.86;83.76
68990;DHT22;56046;47.270;11.368;2022-10-31T05:41:55;8.83;83.98
68990;DHT22;56046;47.270;11.368;2022-10-31T05:44:21;8.89;83.52
68990;DHT22;56046;47.270;11.368;2022-10-31T05:46:46;8.87;83.62
68990;DHT22;56046;47.270;11.368;2022-10-31T05:49:12;8.86;83.53
68990;DHT22;56046;47.270;11.368;2022-10-31T05:51:37;8.75;83.73
68990;DHT22;56046;47.270;11.368;2022-10-31T05:54:03;8.72;83.94
68990;DHT22;56046;47.270;11.368;2022-10-31T05:56:28;8.73;83.94
68990;DHT22;56046;47.270;11.368;2022-10-31T05:58:54;8.71;84.08
68990;DHT22;56046;47.270;11.368;2022-10-31T06:01:19;8.62;84.63
68990;DHT22;56046;47.270;11.368;2022-10-31T06:03:45;8.62;84.67
68990;DHT22;56046;47.270;11.368;2022-10-31T06:06:10;8.58;85.21
68990;DHT22;56046;47.270;11.368;2022-10-31T06:08:36;8.59;85.12
68990;DHT22;56046;47.270;11.368;2022-10-31T06:11:01;8.56;84.92
68990;DHT22;56046;47.270;11.368;2022-10-31T06:13:27;8.54;85.51
68990;DHT22;56046;47.270;11.368;2022-10-31T06:15:52;8.56;85.38
68990;DHT22;56046;47.270;11.368;2022-10-31T06:18:18;8.58;85.21
68990;DHT22;56046;47.270;11.368;2022-10-31T06:20:43;8.59;84.87
68990;DHT22;56046;47.270;11.368;2022-10-31T06:23:09;8.66;84.70
68990;DHT22;56046;47.270;11.368;2022-10-31T06:25:34;8.75;84.26
68990;DHT22;56046;47.270;11.368;2022-10-31T06:28:00;8.82;83.99
68990;DHT22;56046;47.270;11.368;2022-10-31T06:30:25;8.82;84.03
68990;DHT22;56046;47.270;11.368;2022-10-31T06:32:51;8.89;83.50
68990;DHT22;56046;47.270;11.368;2022-10-31T06:35:17;8.94;83.17
68990;DHT22;56046;47.270;11.368;2022-10-31T06:37:50;8.89;84.06
68990;DHT22;56046;47.270;11.368;2022-10-31T06:40:16;8.99;83.50
68990;DHT22;56046;47.270;11.368;2022-10-31T06:42:41;9.06;82.85
68990;DHT22;56046;47.270;11.368;2022-10-31T06:45:07;9.10;82.52
68990;DHT22;56046;47.270;11.368;2022-10-31T06:47:32;9.16;82.43
68990;DHT22;56046;47.270;11.368;2022-10-31T06:49:58;9.17;82.76
68990;DHT22;56046;47.270;11.368;2022-10-31T06:52:23;9.35;82.73
68990;DHT22;56046;47.270;11.368;2022-10-31T06:54:49;9.55;81.53
68990;DHT22;56046;47.270;11.368;2022-10-31T06:57:14;9.71;80.84
68990;DHT22;56046;47.270;11.368;2022-10-31T06:59:39;9.96;79.82
68990;DHT22;56046;47.270;11.368;2022-10-31T07:02:07;10.13;78.82
68990;DHT22;56046;47.270;11.368;2022-10-31T07:04:33;10.34;78.45
68990;DHT22;56046;47.270;11.368;2022-10-31T07:06:59;10.47;78.06
68990;DHT22;56046;47.270;11.368;2022-10-31T07:09:24;10.54;77.60
68990;DHT22;56046;47.270;11.368;2022-10-31T07:11:52;10.64;77.32
68990;DHT22;56046;47.270;11.368;2022-10-31T07:14:19;10.75;77.43
68990;DHT22;56046;47.270;11.368;2022-10-31T07:16:48;10.81;76.49
68990;DHT22;56046;47.270;11.368;2022-10-31T07:19:14;10.86;75.99
68990;DHT22;56046;47.270;11.368;2022-10-31T07:21:39;11.05;75.81
68990;DHT22;56046;47.270;11.368;2022-10-31T07:24:05;11.16;75.22
68990;DHT22;56046;47.270;11.368;2022-10-31T07:26:30;11.31;74.89
68990;DHT22;56046;47.270;11.368;2022-10-31T07:28:56;11.44;74.11
68990;DHT22;56046;47.270;11.368;2022-10-31T07:31:21;11.51;73.30
68990;DHT22;56046;47.270;11.368;2022-10-31T07:33:47;11.77;73.57
68990;DHT22;56046;47.270;11.368;2022-10-31T07:36:12;11.93;73.51
68990;DHT22;56046;47.270;11.368;2022-10-31T07:38:38;11.93;73.16
68990;DHT22;56046;47.270;11.368;2022-10-31T07:41:03;12.08;72.55
68990;DHT22;56046;47.270;11.368;2022-10-31T07:43:29;12.23;71.33
68990;DHT22;56046;47.270;11.368;2022-10-31T07:45:54;12.40;72.61
68990;DHT22;56046;47.270;11.368;2022-10-31T07:48:20;12.51;72.08
68990;DHT22;56046;47.270;11.368;2022-10-31T07:50:46;12.60;70.95
68990;DHT22;56046;47.270;11.368;2022-10-31T07:53:12;12.63;71.25
68990;DHT22;56046;47.270;11.368;2022-10-31T07:55:38;12.56;70.75
68990;DHT22;56046;47.270;11.368;2022-10-31T07:58:06;12.53;71.77
68990;DHT22;56046;47.270;11.368;2022-10-31T08:00:33;12.40;71.46
68990;DHT22;56046;47.270;11.368;2022-10-31T08:03:08;12.47;71.77
68990;DHT22;56046;47.270;11.368;2022-10-31T08:05:35;12.40;71.01
68990;DHT22;56046;47.270;11.368;2022-10-31T08:08:01;12.33;72.30
68990;DHT22;56046;47.270;11.368;2022-10-31T08:10:27;12.08;72.62
68990;DHT22;56046;47.270;11.368;2022-10-31T08:12:57;12.08;72.91
68990;DHT22;56046;47.270;11.368;2022-10-31T08:15:23;12.09;72.53
68990;DHT22;56046;47.270;11.368;2022-10-31T08:17:49;12.08;71.71
68990;DHT22;56046;47.270;11.368;2022-10-31T08:20:14;12.08;70.90
68990;DHT22;56046;47.270;11.368;2022-10-31T08:22:40;12.01;71.40
68990;DHT22;56046;47.270;11.368;2022-10-31T08:25:05;12.02;71.24
68990;DHT22;56046;47.270;11.368;2022-10-31T08:27:31;12.13;71.15
68990;DHT22;56046;47.270;11.368;2022-10-31T08:29:56;12.32;71.32
68990;DHT22;56046;47.270;11.368;2022-10-31T08:32:22;12.49;70.23
68990;DHT22;56046;47.270;11.368;2022-10-31T08:34:47;12.64;69.81
68990;DHT22;56046;47.270;11.368;2022-10-31T08:37:13;12.67;70.16
68990;DHT22;56046;47.270;11.368;2022-10-31T08:39:43;12.75;70.10
68990;DHT22;56046;47.270;11.368;2022-10-31T08:42:09;12.69;70.25
68990;DHT22;56046;47.270;11.368;2022-10-31T08:44:34;12.73;70.73
68990;DHT22;56046;47.270;11.368;2022-10-31T08:47:00;12.73;71.22
68990;DHT22;56046;47.270;11.368;2022-10-31T08:49:25;12.74;71.44
68990;DHT22;56046;47.270;11.368;2022-10-31T08:51:50;12.78;71.28
68990;DHT22;56046;47.270;11.368;2022-10-31T08:54:16;12.83;71.23
68990;DHT22;56046;47.270;11.368;2022-10-31T08:56:41;12.92;70.68
68990;DHT22;56046;47.270;11.368;2022-10-31T08:59:07;12.96;70.42
68990;DHT22;56046;47.270;11.368;2022-10-31T09:01:32;13.06;69.47
68990;DHT22;56046;47.270;11.368;2022-10-31T09:03:57;13.26;69.85
68990;DHT22;56046;47.270;11.368;2022-10-31T09:06:23;13.47;69.41
68990;DHT22;56046;47.270;11.368;2022-10-31T09:08:48;13.63;69.16
68990;DHT22;56046;47.270;11.368;2022-10-31T09:11:14;13.81;68.71
68990;DHT22;56046;47.270;11.368;2022-10-31T09:13:39;13.91;68.03
68990;DHT22;56046;47.270;11.368;2022-10-31T09:16:05;14.09;66.80
68990;DHT22;56046;47.270;11.368;2022-10-31T09:18:30;14.30;65.87
68990;DHT22;56046;47.270;11.368;2022-10-31T09:20:58;14.66;65.17
68990;DHT22;56046;47.270;11.368;2022-10-31T09:23:24;14.94;63.84
68990;DHT22;56046;47.270;11.368;2022-10-31T09:25:51;15.12;62.13
68990;DHT22;56046;47.270;11.368;2022-10-31T09:28:20;15.38;62.93
68990;DHT22;56046;47.270;11.368;2022-10-31T09:30:47;15.53;62.68
68990;DHT22;56046;47.270;11.368;2022-10-31T09:33:13;15.66;61.59
68990;DHT22;56046;47.270;11.368;2022-10-31T09:35:39;15.60;61.26
68990;DHT22;56046;47.270;11.368;2022-10-31T09:38:15;15.89;60.46
68990;DHT22;56046;47.270;11.368;2022-10-31T09:49:30;17.63;56.26
68990;DHT22;56046;47.270;11.368;2022-10-31T09:52:08;17.76;55.44
68990;DHT22;56046;47.270;11.368;2022-10-31T09:54:49;17.87;56.27
68990;DHT22;56046;47.270;11.368;2022-10-31T09:57:22;17.87;55.51
68990;DHT22;56046;47.270;11.368;2022-10-31T09:59:49;18.01;55.90
68990;DHT22;56046;47.270;11.368;2022-10-31T10:02:29;18.11;54.78
68990;DHT22;56046;47.270;11.368;2022-10-31T10:31:25;19.02;53.29
68990;DHT22;56046;47.270;11.368;2022-10-31T10:36:00;18.98;52.93
68990;DHT22;56046;47.270;11.368;2022-10-31T10:38:37;18.98;51.48
68990;DHT22;56046;47.270;11.368;2022-10-31T10:41:14;19.03;51.38
68990;DHT22;56046;47.270;11.368;2022-10-31T10:43:41;18.89;52.72
68990;DHT22;56046;47.270;11.368;2022-10-31T10:49:09;19.10;53.33
68990;DHT22;56046;47.270;11.368;2022-10-31T10:51:59;19.24;52.24
68990;DHT22;56046;47.270;11.368;2022-10-31T11:00:18;19.47;53.22
68990;DHT22;56046;47.270;11.368;2022-10-31T11:02:44;19.32;54.78
68990;DHT22;56046;47.270;11.368;2022-10-31T11:05:57;19.50;54.22
68990;DHT22;56046;47.270;11.368;2022-10-31T11:08:04;19.48;54.81
68990;DHT22;56046;47.270;11.368;2022-10-31T11:10:30;19.46;53.68
68990;DHT22;56046;47.270;11.368;2022-10-31T11:15:32;19.28;54.75
68990;DHT22;56046;47.270;11.368;2022-10-31T11:17:59;19.32;53.75
68990;DHT22;56046;47.270;11.368;2022-10-31T11:20:32;18.69;54.88
68990;DHT22;56046;47.270;11.368;2022-10-31T11:23:17;18.77;55.13
68990;DHT22;56046;47.270;11.368;2022-10-31T11:26:01;19.06;55.18
68990;DHT22;56046;47.270;11.368;2022-10-31T11:28:28;18.99;53.70
68990;DHT22;56046;47.270;11.368;2022-10-31T11:31:20;19.13;54.79
68990;DHT22;56046;47.270;11.368;2022-10-31T11:33:48;19.27;55.19
68990;DHT22;56046;47.270;11.368;2022-10-31T11:36:26;19.65;55.27
68990;DHT22;56046;47.270;11.368;2022-10-31T11:38:53;19.71;53.56
68990;DHT22;56046;47.270;11.368;2022-10-31T11:41:39;19.87;54.98
68990;DHT22;56046;47.270;11.368;2022-10-31T11:44:22;19.78;53.07
68990;DHT22;56046;47.270;11.368;2022-10-31T11:46:51;20.03;53.35
68990;DHT22;56046;47.270;11.368;2022-10-31T11:51:48;20.17;50.63
68990;DHT22;56046;47.270;11.368;2022-10-31T11:54:22;20.36;50.79
68990;DHT22;56046;47.270;11.368;2022-10-31T11:56:48;20.47;51.69
68990;DHT22;56046;47.270;11.368;2022-10-31T11:59:22;20.37;51.45
68990;DHT22;56046;47.270;11.368;2022-10-31T12:01:50;20.48;51.07
68990;DHT22;56046;47.270;11.368;2022-10-31T12:04:16;20.14;51.01
68990;DHT22;56046;47.270;11.368;2022-10-31T12:06:46;20.39;52.21
68990;DHT22;56046;47.270;11.368;2022-10-31T12:27:24;20.69;51.89
68990;DHT22;56046;47.270;11.368;2022-10-31T12:30:15;21.10;51.33
68990;DHT22;56046;47.270;11.368;2022-10-31T12:38:38;21.05;49.99
68990;DHT22;56046;47.270;11.368;2022-10-31T12:49:26;20.98;49.39
68990;DHT22;56046;47.270;11.368;2022-10-31T13:00:07;20.91;50.06
68990;DHT22;56046;47.270;11.368;2022-10-31T13:02:42;21.13;49.78
68990;DHT22;56046;47.270;11.368;2022-10-31T13:08:06;21.30;49.13
68990;DHT22;56046;47.270;11.368;2022-10-31T13:10:52;21.27;48.68
68990;DHT22;56046;47.270;11.368;2022-10-31T13:13:23;21.00;48.23
68990;DHT22;56046;47.270;11.368;2022-10-31T13:15:58;21.19;48.28
68990;DHT22;56046;47.270;11.368;2022-10-31T13:18:39;21.26;49.63
68990;DHT22;56046;47.270;11.368;2022-10-31T13:21:15;20.94;49.72
68990;DHT22;56046;47.270;11.368;2022-10-31T13:23:43;21.07;49.94
68990;DHT22;56046;47.270;11.368;2022-10-31T13:26:12;21.07;50.32
68990;DHT22;56046;47.270;11.368;2022-10-31T13:28:48;21.06;49.02
68990;DHT22;56046;47.270;11.368;2022-10-31T13:31:15;21.13;49.79
68990;DHT22;56046;47.270;11.368;2022-10-31T13:33:45;20.67;48.54
68990;DHT22;56046;47.270;11.368;2022-10-31T13:36:32;20.88;48.06
68990;DHT22;56046;47.270;11.368;2022-10-31T13:42:03;20.98;49.85
68990;DHT22;56046;47.270;11.368;2022-10-31T13:44:35;21.20;49.44
68990;DHT22;56046;47.270;11.368;2022-10-31T13:47:21;21.06;48.95
68990;DHT22;56046;47.270;11.368;2022-10-31T13:49:47;20.92;48.35
68990;DHT22;56046;47.270;11.368;2022-10-31T13:54:39;20.74;44.31
68990;DHT22;56046;47.270;11.368;2022-10-31T13:59:54;20.60;48.59
68990;DHT22;56046;47.270;11.368;2022-10-31T14:02:50;20.95;44.18
68990;DHT22;56046;47.270;11.368;2022-10-31T14:05:34;21.26;41.73
68990;DHT22;56046;47.270;11.368;2022-10-31T14:08:04;21.34;42.03
68990;DHT22;56046;47.270;11.368;2022-10-31T14:10:38;21.07;46.41
68990;DHT22;56046;47.270;11.368;2022-10-31T14:13:31;20.74;39.69
68990;DHT22;56046;47.270;11.368;2022-10-31T14:16:23;20.99;38.50
68990;DHT22;56046;47.270;11.368;2022-10-31T14:18:58;20.98;43.17
68990;DHT22;56046;47.270;11.368;2022-10-31T14:23:51;20.27;50.09
68990;DHT22;56046;47.270;11.368;2022-10-31T14:28:52;19.65;49.44
68990;DHT22;56046;47.270;11.368;2022-10-31T14:31:29;19.82;46.82
68990;DHT22;56046;47.270;11.368;2022-10-31T14:34:02;21.00;35.68
68990;DHT22;56046;47.270;11.368;2022-10-31T14:36:45;21.81;35.51
68990;DHT22;56046;47.270;11.368;2022-10-31T14:39:45;21.27;40.60
68990;DHT22;56046;47.270;11.368;2022-10-31T14:51:23;20.05;48.31
68990;DHT22;56046;47.270;11.368;2022-10-31T14:53:54;20.22;35.54
68990;DHT22;56046;47.270;11.368;2022-10-31T14:56:25;20.63;38.61
68990;DHT22;56046;47.270;11.368;2022-10-31T14:58:53;20.69;38.24
68990;DHT22;56046;47.270;11.368;2022-10-31T15:01:30;20.55;46.94
68990;DHT22;56046;47.270;11.368;2022-10-31T15:04:12;19.99;50.25
68990;DHT22;56046;47.270;11.368;2022-10-31T15:06:42;19.51;49.76
68990;DHT22;56046;47.270;11.368;2022-10-31T15:09:25;19.28;51.27
68990;DHT22;56046;47.270;11.368;2022-10-31T15:11:51;18.83;52.76
68990;DHT22;56046;47.270;11.368;2022-10-31T15:14:23;18.96;47.80
68990;DHT22;56046;47.270;11.368;2022-10-31T15:16:49;19.34;39.85
68990;DHT22;56046;47.270;11.368;2022-10-31T15:19:23;19.96;38.42
68990;DHT22;56046;47.270;11.368;2022-10-31T15:21:51;19.69;48.13
68990;DHT22;56046;47.270;11.368;2022-10-31T15:24:17;19.54;46.94
68990;DHT22;56046;47.270;11.368;2022-10-31T15:26:48;19.81;39.67
68990;DHT22;56046;47.270;11.368;2022-10-31T15:29:22;19.79;41.45
68990;DHT22;56046;47.270;11.368;2022-10-31T15:32:09;19.50;50.48
68990;DHT22;56046;47.270;11.368;2022-10-31T15:34:40;18.95;50.73
68990;DHT22;56046;47.270;11.368;2022-10-31T15:37:17;19.06;44.61
68990;DHT22;56046;47.270;11.368;2022-10-31T15:39:43;19.06;46.58
68990;DHT22;56046;47.270;11.368;2022-10-31T15:45:26;18.55;50.71
68990;DHT22;56046;47.270;11.368;2022-10-31T15:48:03;18.58;49.17
68990;DHT22;56046;47.270;11.368;2022-10-31T15:50:37;18.93;46.25
68990;DHT22;56046;47.270;11.368;2022-10-31T15:53:05;19.23;46.44
68990;DHT22;56046;47.270;11.368;2022-10-31T15:55:36;19.07;45.79
68990;DHT22;56046;47.270;11.368;2022-10-31T15:58:10;18.65;53.01
68990;DHT22;56046;47.270;11.368;2022-10-31T16:00:38;18.08;53.80
68990;DHT22;56046;47.270;11.368;2022-10-31T16:05:48;17.99;53.64
68990;DHT22;56046;47.270;11.368;2022-10-31T16:10:51;17.45;55.64
68990;DHT22;56046;47.270;11.368;2022-10-31T16:13:17;17.44;54.69
68990;DHT22;56046;47.270;11.368;2022-10-31T16:15:55;17.72;43.91
68990;DHT22;56046;47.270;11.368;2022-10-31T16:18:21;17.99;43.34
68990;DHT22;56046;47.270;11.368;2022-10-31T16:20:52;18.20;44.31
68990;DHT22;56046;47.270;11.368;2022-10-31T16:23:19;18.28;43.30
68990;DHT22;56046;47.270;11.368;2022-10-31T16:25:47;18.16;48.82
68990;DHT22;56046;47.270;11.368;2022-10-31T16:28:21;18.16;39.65
68990;DHT22;56046;47.270;11.368;2022-10-31T16:30:48;18.37;42.52
68990;DHT22;56046;47.270;11.368;2022-10-31T16:35:47;18.81;43.51
68990;DHT22;56046;47.270;11.368;2022-10-31T16:38:13;18.38;47.80
68990;DHT22;56046;47.270;11.368;2022-10-31T16:40:39;18.11;44.03
68990;DHT22;56046;47.270;11.368;2022-10-31T16:43:05;18.47;40.55
68990;DHT22;56046;47.270;11.368;2022-10-31T16:45:34;18.20;54.45
68990;DHT22;56046;47.270;11.368;2022-10-31T16:48:11;17.30;56.48
68990;DHT22;56046;47.270;11.368;2022-10-31T16:50:37;17.15;54.92
68990;DHT22;56046;47.270;11.368;2022-10-31T16:53:03;17.27;46.79
68990;DHT22;56046;47.270;11.368;2022-10-31T16:55:28;17.46;45.50
68990;DHT22;56046;47.270;11.368;2022-10-31T16:57:55;17.66;47.69
68990;DHT22;56046;47.270;11.368;2022-10-31T17:00:22;17.45;51.64
68990;DHT22;56046;47.270;11.368;2022-10-31T17:02:50;17.65;45.06
68990;DHT22;56046;47.270;11.368;2022-10-31T17:05:17;18.11;41.26
68990;DHT22;56046;47.270;11.368;2022-10-31T17:07:43;18.13;43.86
68990;DHT22;56046;47.270;11.368;2022-10-31T17:10:10;17.85;48.94
68990;DHT22;56046;47.270;11.368;2022-10-31T17:12:36;17.56;49.77
68990;DHT22;56046;47.270;11.368;2022-10-31T17:15:04;17.27;52.21
68990;DHT22;56046;47.270;11.368;2022-10-31T17:17:30;17.68;45.67
68990;DHT22;56046;47.270;11.368;2022-10-31T17:19:55;17.49;53.04
68990;DHT22;56046;47.270;11.368;2022-10-31T17:22:21;17.10;53.78
68990;DHT22;56046;47.270;11.368;2022-10-31T17:24:46;16.97;53.68
68990;DHT22;56046;47.270;11.368;2022-10-31T17:27:12;17.18;45.30
68990;DHT22;56046;47.270;11.368;2022-10-31T17:29:37;18.68;39.75
68990;DHT22;56046;47.270;11.368;2022-10-31T17:32:03;18.07;45.30
68990;DHT22;56046;47.270;11.368;2022-10-31T17:34:29;17.70;50.83
68990;DHT22;56046;47.270;11.368;2022-10-31T17:36:55;17.45;45.59
68990;DHT22;56046;47.270;11.368;2022-10-31T17:39:20;17.83;41.38
68990;DHT22;56046;47.270;11.368;2022-10-31T17:41:50;18.28;42.22
68990;DHT22;56046;47.270;11.368;2022-10-31T17:44:17;18.26;42.54
68990;DHT22;56046;47.270;11.368;2022-10-31T17:46:43;18.73;39.40
68990;DHT22;56046;47.270;11.368;2022-10-31T17:49:10;18.59;39.81
68990;DHT22;56046;47.270;11.368;2022-10-31T17:51:36;18.43;40.65
68990;DHT22;56046;47.270;11.368;2022-10-31T17:54:02;18.28;42.29
68990;DHT22;56046;47.270;11.368;2022-10-31T17:56:30;18.40;38.93
68990;DHT22;56046;47.270;11.368;2022-10-31T17:58:55;18.93;38.32
68990;DHT22;56046;47.270;11.368;2022-10-31T18:01:22;19.27;36.87
68990;DHT22;56046;47.270;11.368;2022-10-31T18:03:48;19.47;37.46
68990;DHT22;56046;47.270;11.368;2022-10-31T18:06:14;19.83;34.67
68990;DHT22;56046;47.270;11.368;2022-10-31T18:08:42;19.99;34.83
68990;DHT22;56046;47.270;11.368;2022-10-31T18:11:16;19.03;45.65
68990;DHT22;56046;47.270;11.368;2022-10-31T18:13:43;18.81;46.67
68990;DHT22;56046;47.270;11.368;2022-10-31T18:16:13;18.23;52.14
68990;DHT22;56046;47.270;11.368;2022-10-31T18:18:40;17.56;55.51